Time;durP1;ratioP1;P1;durP2;ratioP2;P2;SDS_P1;SDS_P2;PMS_P1;PMS_P2;Temp;Humidity;BMP_temperature;BMP_pressure;BME280_temperature;BME280_humidity;BME280_pressure;Samples;Min_cycle;Max_cycle;Signal;HPM_P1;HPM_P2
2023/07/01 00:02:15;;;;;;;4.75;2.67;;;;;;;15.70;44.47;100629.31;4963426;28;20038;-73
2023/07/01 00:04:43;;;;;;;2.97;2.05;;;;;;;15.71;43.99;100625.75;4962666;28;20053;-73
2023/07/01 00:07:11;;;;;;;7.00;2.13;;;;;;;15.64;44.25;100622.66;4964449;28;20415;-73
2023/07/01 00:09:37;;;;;;;7.85;2.20;;;;;;;15.61;44.16;100619.38;4961826;28;20042;-72
2023/07/01 00:12:03;;;;;;;8.90;2.17;;;;;;;15.57;44.35;100621.34;4960396;28;21406;-72
2023/07/01 00:14:28;;;;;;;8.95;2.42;;;;;;;15.56;44.35;100619.69;4961130;28;20518;-72
2023/07/01 00:16:54;;;;;;;3.47;2.00;;;;;;;15.56;44.35;100609.97;4976067;28;20030;-72
2023/07/01 00:19:20;;;;;;;2.65;2.08;;;;;;;15.46;44.52;100606.28;4962669;28;20423;-72
2023/07/01 00:21:45;;;;;;;2.95;1.92;;;;;;;15.34;44.49;100600.00;4960319;28;20303;-71
2023/07/01 00:24:11;;;;;;;5.22;1.58;;;;;;;15.54;44.03;100598.69;4962262;28;20039;-72
2023/07/01 00:26:36;;;;;;;3.63;1.60;;;;;;;15.58;43.67;100584.38;4946586;28;20061;-72
2023/07/01 00:29:04;;;;;;;6.80;1.73;;;;;;;15.43;43.17;100579.28;4960693;28;20165;-69
2023/07/01 00:31:30;;;;;;;3.28;1.25;;;;;;;15.62;43.18;100581.53;4960370;28;20039;-69
2023/07/01 00:33:55;;;;;;;8.90;1.73;;;;;;;15.61;42.96;100571.97;4942158;28;20152;-69
2023/07/01 00:36:21;;;;;;;3.90;1.30;;;;;;;15.62;42.99;100578.91;4959710;28;20651;-68
2023/07/01 00:38:46;;;;;;;3.33;1.40;;;;;;;15.70;42.50;100564.28;4957396;28;20380;-67
2023/07/01 00:41:12;;;;;;;5.78;1.08;;;;;;;15.65;42.38;100562.91;4962469;28;20026;-70
2023/07/01 00:43:40;;;;;;;5.05;1.65;;;;;;;15.73;42.30;100561.47;4946027;28;20278;-70
2023/07/01 00:46:06;;;;;;;2.63;1.80;;;;;;;15.74;42.45;100551.75;4975846;28;20056;-70
2023/07/01 00:48:34;;;;;;;4.07;1.20;;;;;;;15.68;42.46;100552.16;4953639;28;20077;-69
2023/07/01 00:51:00;;;;;;;2.10;1.10;;;;;;;15.66;42.55;100548.78;4976032;28;20043;-69
2023/07/01 00:53:25;;;;;;;9.95;1.80;;;;;;;15.45;42.93;100545.78;4959890;28;20046;-70
2023/07/01 00:55:52;;;;;;;5.63;1.23;;;;;;;15.42;43.06;100541.56;4972786;28;20035;-69
2023/07/01 00:58:19;;;;;;;2.80;1.13;;;;;;;15.39;43.20;100536.50;4961059;28;20459;-69
2023/07/01 01:00:45;;;;;;;3.13;1.38;;;;;;;15.38;43.61;100533.03;4974911;28;20468;-69
2023/07/01 01:03:21;;;;;;;4.53;1.55;;;;;;;15.35;43.32;100535.88;4957489;28;20122;-68
2023/07/01 01:05:58;;;;;;;4.35;1.92;;;;;;;15.38;43.47;100527.75;4947250;28;20068;-73
2023/07/01 01:08:50;;;;;;;1.58;1.27;;;;;;;15.34;43.58;100523.63;4961449;28;20590;-71
2023/07/01 01:11:16;;;;;;;4.90;1.35;;;;;;;15.35;43.32;100521.88;4949338;28;20496;-71
2023/07/01 01:13:43;;;;;;;5.70;1.40;;;;;;;15.32;43.61;100506.25;4958486;28;20278;-71
2023/07/01 01:16:10;;;;;;;6.03;1.08;;;;;;;15.27;43.38;100500.44;4976197;28;20030;-71
2023/07/01 01:18:40;;;;;;;4.60;1.73;;;;;;;15.38;42.93;100500.59;4961163;28;20044;-71
2023/07/01 01:21:06;;;;;;;2.63;1.10;;;;;;;15.44;42.97;100496.69;4960553;28;20042;-69
2023/07/01 01:24:03;;;;;;;3.55;0.95;;;;;;;15.22;42.84;100486.75;4963090;28;20038;-69
2023/07/01 01:26:37;;;;;;;4.15;0.63;;;;;;;15.36;42.50;100489.31;4979702;28;20042;-69
2023/07/01 01:29:06;;;;;;;5.88;1.30;;;;;;;15.49;42.35;100484.91;4964367;28;20491;-69
2023/07/01 01:31:33;;;;;;;3.45;1.10;;;;;;;15.54;42.08;100488.06;4967376;28;20034;-68
2023/07/01 01:33:58;;;;;;;3.78;1.33;;;;;;;15.50;41.67;100481.31;4976621;28;20054;-69
2023/07/01 01:36:51;;;;;;;6.30;1.25;;;;;;;15.53;42.02;100470.59;4966227;28;20038;-68
2023/07/01 01:39:24;;;;;;;4.22;1.17;;;;;;;15.41;42.27;100463.50;4963425;28;20093;-68
2023/07/01 01:41:57;;;;;;;4.45;1.17;;;;;;;15.41;42.39;100466.13;4967660;28;20045;-69
2023/07/01 01:44:34;;;;;;;5.72;0.80;;;;;;;15.18;42.96;100467.66;4963320;28;20375;-69
2023/07/01 01:47:01;;;;;;;4.63;0.90;;;;;;;15.23;42.62;100462.09;4982275;28;20419;-68
2023/07/01 01:49:27;;;;;;;8.95;1.00;;;;;;;15.35;42.32;100453.41;4955215;28;20355;-69
2023/07/01 01:51:54;;;;;;;10.40;1.88;;;;;;;15.46;42.31;100444.75;4965526;28;20038;-69
2023/07/01 01:54:20;;;;;;;10.35;1.05;;;;;;;15.21;42.79;100442.91;4944076;28;20046;-69
2023/07/01 01:56:45;;;;;;;3.65;0.73;;;;;;;15.33;42.53;100442.97;4964023;28;20461;-69
2023/07/01 01:59:11;;;;;;;6.32;1.45;;;;;;;15.29;42.94;100438.00;4967324;28;20062;-76
2023/07/01 02:01:36;;;;;;;5.43;1.13;;;;;;;14.96;43.79;100429.56;4960479;28;20126;-74
2023/07/01 02:04:02;;;;;;;2.08;1.25;;;;;;;14.87;43.92;100442.50;4949420;28;20030;-72
2023/07/01 02:06:28;;;;;;;6.90;0.55;;;;;;;15.34;43.03;100433.28;4964380;28;20145;-70
2023/07/01 02:08:53;;;;;;;2.78;1.10;;;;;;;15.20;43.25;100430.69;4964096;28;20177;-67
2023/07/01 02:11:21;;;;;;;3.42;0.65;;;;;;;15.11;43.61;100432.97;4967108;28;20767;-73
2023/07/01 02:13:46;;;;;;;5.43;1.30;;;;;;;14.54;45.36;100428.78;4952056;28;20054;-73
2023/07/01 02:16:12;;;;;;;2.92;1.23;;;;;;;14.87;44.42;100424.06;4965094;28;20034;-72
2023/07/01 02:18:37;;;;;;;5.40;0.98;;;;;;;14.94;45.00;100422.72;4951985;28;20042;-73
2023/07/01 02:21:06;;;;;;;5.53;1.80;;;;;;;14.52;45.62;100414.03;4968223;28;20112;-72
2023/07/01 02:23:32;;;;;;;2.65;1.20;;;;;;;14.49;46.29;100414.25;4967595;28;20034;-71
2023/07/01 02:25:58;;;;;;;4.35;1.20;;;;;;;14.81;45.26;100403.41;4962848;28;20045;-70
2023/07/01 02:28:23;;;;;;;2.53;0.80;;;;;;;14.97;44.96;100397.06;4959427;28;20662;-70
2023/07/01 02:30:49;;;;;;;3.15;1.00;;;;;;;14.59;45.88;100388.19;4965776;28;20026;-70
2023/07/01 02:33:14;;;;;;;3.03;0.70;;;;;;;14.66;45.80;100387.72;4964352;28;20041;-70
2023/07/01 02:35:40;;;;;;;2.67;0.77;;;;;;;14.50;45.88;100387.00;4977534;28;20553;-70
2023/07/01 02:38:07;;;;;;;4.50;0.90;;;;;;;14.68;45.55;100372.66;4964150;28;20582;-70
2023/07/01 02:40:35;;;;;;;1.58;0.82;;;;;;;14.31;46.21;100369.75;4976903;28;20038;-70
2023/07/01 02:43:04;;;;;;;6.18;1.33;;;;;;;14.53;45.92;100371.03;4961851;28;20057;-71
2023/07/01 02:45:29;;;;;;;7.57;1.30;;;;;;;14.63;45.87;100373.91;4965768;28;20038;-70
2023/07/01 02:47:55;;;;;;;4.40;1.38;;;;;;;13.96;47.62;100365.88;4961907;28;20058;-69
2023/07/01 02:50:20;;;;;;;2.90;1.05;;;;;;;13.83;48.28;100361.38;4962702;28;20046;-70
2023/07/01 02:52:46;;;;;;;3.33;1.25;;;;;;;14.04;48.23;100376.75;4962461;28;20105;-70
2023/07/01 02:55:11;;;;;;;4.70;1.23;;;;;;;13.94;49.11;100369.44;4967079;28;20038;-70
2023/07/01 02:57:36;;;;;;;8.07;2.25;;;;;;;13.33;50.99;100381.84;4978532;28;20165;-68
2023/07/01 03:00:04;;;;;;;4.13;1.17;;;;;;;13.91;49.76;100374.88;4964809;28;20042;-69
2023/07/01 03:02:29;;;;;;;4.85;1.90;;;;;;;14.05;50.04;100378.44;4965978;28;20578;-73
2023/07/01 03:04:55;;;;;;;5.63;1.45;;;;;;;13.39;52.54;100374.56;4962755;28;20039;-73
2023/07/01 03:07:20;;;;;;;2.10;1.60;;;;;;;13.49;52.65;100370.44;4967465;28;20065;-72
2023/07/01 03:09:46;;;;;;;3.70;1.60;;;;;;;13.15;53.97;100361.13;4963638;28;20049;-72
2023/07/01 03:12:11;;;;;;;6.25;2.08;;;;;;;13.39;53.40;100361.44;4963762;28;20037;-72
2023/07/01 03:14:37;;;;;;;3.60;1.35;;;;;;;13.50;53.27;100356.38;4980524;28;20571;-72
2023/07/01 03:17:03;;;;;;;4.00;1.30;;;;;;;13.70;53.02;100363.91;4963952;28;20049;-70
2023/07/01 03:19:29;;;;;;;7.90;2.15;;;;;;;13.54;53.48;100352.66;4965312;28;20050;-70
2023/07/01 03:21:54;;;;;;;2.95;1.70;;;;;;;13.44;54.05;100343.63;4962792;28;20569;-71
2023/07/01 03:24:20;;;;;;;3.80;2.10;;;;;;;13.48;54.15;100350.38;4962108;28;20038;-69
2023/07/01 03:26:45;;;;;;;6.15;2.40;;;;;;;12.86;55.90;100346.13;4961842;28;20512;-69
2023/07/01 03:29:11;;;;;;;7.57;1.95;;;;;;;13.30;54.80;100344.47;4952688;28;20251;-69
2023/07/01 03:31:36;;;;;;;8.32;2.15;;;;;;;13.45;54.42;100343.53;4962646;28;20120;-69
2023/07/01 03:34:02;;;;;;;4.38;2.42;;;;;;;13.39;54.49;100337.81;4960017;28;20133;-70
2023/07/01 03:36:28;;;;;;;4.88;2.40;;;;;;;13.30;54.93;100344.47;4965124;28;20168;-70
2023/07/01 03:38:56;;;;;;;6.47;1.95;;;;;;;13.48;54.48;100332.84;4961293;28;20133;-67
2023/07/01 03:41:23;;;;;;;5.15;1.88;;;;;;;13.10;55.37;100324.66;4962245;28;20125;-67
2023/07/01 03:43:49;;;;;;;6.22;1.83;;;;;;;13.20;55.60;100322.31;4976174;28;20038;-67
2023/07/01 03:46:14;;;;;;;5.78;2.63;;;;;;;13.19;55.57;100318.03;4958386;28;20679;-67
2023/07/01 03:48:39;;;;;;;6.07;2.63;;;;;;;13.02;56.29;100314.59;4963920;28;20287;-66
2023/07/01 03:51:07;;;;;;;9.10;3.10;;;;;;;12.95;56.36;100302.78;4962878;28;20042;-67
2023/07/01 03:53:32;;;;;;;4.20;2.88;;;;;;;13.01;56.66;100305.06;4962569;28;20046;-67
2023/07/01 03:55:58;;;;;;;8.48;3.30;;;;;;;12.69;57.70;100302.56;4965869;28;20555;-67
2023/07/01 03:58:24;;;;;;;6.07;2.90;;;;;;;12.97;56.98;100298.28;4959000;28;20129;-67
2023/07/01 04:00:49;;;;;;;7.05;3.45;;;;;;;13.15;56.35;100285.03;4958875;28;20270;-69
2023/07/01 04:03:14;;;;;;;8.23;3.15;;;;;;;13.10;56.50;100278.25;4960769;28;20066;-67
2023/07/01 04:05:40;;;;;;;6.10;2.45;;;;;;;12.78;57.61;100279.31;4962977;28;20574;-68
2023/07/01 04:08:05;;;;;;;7.78;3.47;;;;;;;13.06;56.75;100274.13;4962293;28;20038;-67
2023/07/01 04:10:31;;;;;;;8.57;3.05;;;;;;;12.77;57.44;100273.25;4965036;28;20096;-67
2023/07/01 04:12:58;;;;;;;5.22;2.92;;;;;;;12.85;57.35;100276.28;4961909;28;20039;-69
2023/07/01 04:15:24;;;;;;;6.40;2.92;;;;;;;12.27;59.17;100277.00;4958838;28;20042;-69
2023/07/01 04:17:50;;;;;;;6.32;3.10;;;;;;;12.58;58.58;100280.44;4963110;28;20045;-69
2023/07/01 04:20:17;;;;;;;8.82;3.58;;;;;;;12.89;57.79;100276.91;4957327;28;20152;-69
2023/07/01 04:22:42;;;;;;;7.88;3.42;;;;;;;12.72;58.52;100269.22;4963453;28;20133;-69
2023/07/01 04:25:08;;;;;;;7.97;3.30;;;;;;;13.03;56.99;100274.34;4962483;28;20843;-69
2023/07/01 04:27:35;;;;;;;11.60;3.78;;;;;;;12.81;58.38;100259.03;4961849;28;20038;-69
2023/07/01 04:30:00;;;;;;;9.88;3.55;;;;;;;12.66;58.45;100259.88;4959751;28;20065;-68
2023/07/01 04:32:29;;;;;;;5.95;3.13;;;;;;;12.77;58.31;100256.66;4959989;28;20569;-70
2023/07/01 04:34:55;;;;;;;5.45;3.05;;;;;;;12.80;58.38;100253.84;4962477;28;20104;-69
2023/07/01 04:37:20;;;;;;;6.40;3.42;;;;;;;12.99;57.77;100254.47;4960896;28;20093;-69
2023/07/01 04:39:46;;;;;;;7.80;3.30;;;;;;;12.67;58.49;100244.06;4961164;28;20939;-69
2023/07/01 04:42:14;;;;;;;3.35;2.35;;;;;;;12.62;58.94;100238.25;4961456;28;20031;-69
2023/07/01 04:44:43;;;;;;;7.10;3.00;;;;;;;12.76;58.46;100237.47;4958148;28;20038;-69
2023/07/01 04:47:08;;;;;;;7.82;4.15;;;;;;;12.53;59.39;100241.41;4962728;28;20088;-70
2023/07/01 04:49:34;;;;;;;6.68;3.67;;;;;;;12.49;59.52;100237.25;4957078;28;20050;-70
2023/07/01 04:51:59;;;;;;;3.70;2.90;;;;;;;12.72;58.77;100237.75;4963898;28;20034;-68
2023/07/01 04:54:27;;;;;;;4.15;2.40;;;;;;;12.92;58.53;100233.94;4962170;28;20540;-72
2023/07/01 04:56:53;;;;;;;4.25;3.08;;;;;;;12.94;58.33;100239.91;4963719;28;20124;-73
2023/07/01 04:59:18;;;;;;;14.68;3.38;;;;;;;12.94;58.16;100238.16;4961982;28;20406;-73
2023/07/01 05:01:44;;;;;;;5.53;2.85;;;;;;;13.08;58.02;100235.53;4960524;28;20037;-66
2023/07/01 05:04:09;;;;;;;7.78;3.97;;;;;;;12.76;58.65;100228.75;4960721;28;20046;-70
2023/07/01 05:06:35;;;;;;;2.90;2.60;;;;;;;13.01;58.04;100231.59;4956459;28;20241;-69
2023/07/01 05:09:00;;;;;;;4.00;3.17;;;;;;;12.82;58.41;100226.59;4960247;28;20278;-68
2023/07/01 05:11:27;;;;;;;5.18;2.88;;;;;;;13.05;57.98;100225.25;4960836;28;21602;-69
2023/07/01 05:13:53;;;;;;;4.68;2.60;;;;;;;13.19;57.38;100226.19;4959838;28;20042;-70
2023/07/01 05:16:19;;;;;;;6.63;3.13;;;;;;;12.97;57.81;100221.38;4957173;28;20608;-69
2023/07/01 05:18:44;;;;;;;4.30;2.28;;;;;;;13.18;57.30;100217.44;4962096;28;20046;-70
2023/07/01 05:21:10;;;;;;;4.32;1.70;;;;;;;13.03;58.15;100211.38;4959617;28;20034;-69
2023/07/01 05:23:35;;;;;;;7.38;2.00;;;;;;;13.32;56.72;100204.31;4960953;28;20488;-70
2023/07/01 05:26:01;;;;;;;5.20;2.20;;;;;;;13.42;56.33;100216.88;4962641;28;20041;-73
2023/07/01 05:28:26;;;;;;;3.28;2.55;;;;;;;13.35;56.43;100213.78;4960490;28;20456;-79
2023/07/01 05:30:52;;;;;;;7.32;1.70;;;;;;;13.52;56.39;100213.56;4959177;28;20164;-70
2023/07/01 05:33:19;;;;;;;3.63;2.10;;;;;;;12.83;57.68;100209.13;4958474;28;20042;-70
2023/07/01 05:35:45;;;;;;;5.68;2.38;;;;;;;13.18;56.99;100209.56;4963014;28;20255;-71
2023/07/01 05:38:11;;;;;;;4.32;2.28;;;;;;;13.25;56.54;100208.28;4957940;28;20038;-71
2023/07/01 05:40:37;;;;;;;2.70;1.80;;;;;;;13.27;56.85;100205.53;4962585;28;20575;-72
2023/07/01 05:43:03;;;;;;;2.97;2.25;;;;;;;12.79;58.30;100203.19;4962877;28;20031;-72
2023/07/01 05:45:29;;;;;;;4.57;1.58;;;;;;;13.05;57.36;100192.91;4962649;28;21060;-72
2023/07/01 05:47:55;;;;;;;12.30;3.10;;;;;;;13.24;56.49;100197.88;4962399;28;20034;-71
2023/07/01 05:50:20;;;;;;;2.67;2.00;;;;;;;12.68;58.07;100193.31;4960071;28;20140;-72
2023/07/01 05:52:46;;;;;;;3.22;1.92;;;;;;;13.27;56.73;100197.66;4964121;28;20040;-71
2023/07/01 05:55:11;;;;;;;2.38;1.73;;;;;;;13.68;55.69;100191.63;4959740;28;20046;-73
2023/07/01 05:57:37;;;;;;;3.92;1.90;;;;;;;13.80;54.99;100190.84;4965874;28;20177;-71
2023/07/01 06:00:04;;;;;;;3.08;1.83;;;;;;;13.88;55.28;100185.94;4962703;28;20369;-75
2023/07/01 06:02:38;;;;;;;5.38;2.58;;;;;;;13.69;55.69;100193.31;4962481;28;20038;-71
2023/07/01 06:05:04;;;;;;;4.45;2.28;;;;;;;13.44;56.52;100189.59;4962917;28;20042;-71
2023/07/01 06:07:32;;;;;;;7.55;2.08;;;;;;;13.61;55.99;100179.84;4959518;28;20554;-71
2023/07/01 06:09:57;;;;;;;4.10;1.90;;;;;;;13.87;55.15;100184.25;4957693;28;20133;-68
2023/07/01 06:12:23;;;;;;;8.25;1.90;;;;;;;13.62;55.39;100184.16;4960406;28;20038;-72
2023/07/01 06:14:49;;;;;;;5.78;1.88;;;;;;;12.89;57.27;100172.00;4963642;28;20153;-71
2023/07/01 06:17:16;;;;;;;5.80;2.05;;;;;;;13.25;56.81;100189.91;4964466;28;20578;-72
2023/07/01 06:19:42;;;;;;;6.32;1.90;;;;;;;13.69;55.79;100181.00;4962787;28;20042;-71
2023/07/01 06:22:08;;;;;;;5.57;2.28;;;;;;;13.55;56.11;100180.19;4968835;28;20871;-70
2023/07/01 06:24:33;;;;;;;3.72;1.85;;;;;;;13.55;55.63;100182.81;4958166;28;20825;-70
2023/07/01 06:26:59;;;;;;;4.38;1.98;;;;;;;13.60;55.76;100176.34;4968022;28;20482;-66
2023/07/01 06:29:24;;;;;;;2.75;2.05;;;;;;;13.17;57.26;100175.56;4963377;28;20054;-72
2023/07/01 06:31:50;;;;;;;4.45;2.08;;;;;;;13.85;55.33;100167.75;4965775;28;20049;-67
2023/07/01 06:34:17;;;;;;;2.83;1.70;;;;;;;13.88;55.00;100167.56;4975026;28;20056;-68
2023/07/01 06:36:43;;;;;;;5.18;3.05;;;;;;;12.87;57.29;100166.88;4963138;28;20108;-68
2023/07/01 06:39:09;;;;;;;4.05;1.90;;;;;;;13.69;55.79;100170.50;4962522;28;20054;-68
2023/07/01 06:41:35;;;;;;;6.28;2.25;;;;;;;13.47;56.55;100173.66;4960692;28;20042;-68
2023/07/01 06:44:02;;;;;;;2.63;2.17;;;;;;;13.83;55.42;100164.38;4967649;28;20101;-70
2023/07/01 06:46:27;;;;;;;4.20;1.80;;;;;;;13.38;57.03;100176.84;4963030;28;20030;-71
2023/07/01 06:48:53;;;;;;;3.85;2.38;;;;;;;13.55;56.48;100174.94;4979172;28;20497;-74
2023/07/01 06:51:19;;;;;;;4.15;2.25;;;;;;;13.26;57.40;100181.09;4964436;28;20197;-67
2023/07/01 06:53:47;;;;;;;8.07;2.15;;;;;;;13.58;56.14;100166.91;4979931;28;20112;-67
2023/07/01 06:56:12;;;;;;;5.55;2.38;;;;;;;12.96;58.09;100172.47;4964975;28;20041;-66
2023/07/01 06:58:40;;;;;;;8.40;4.07;;;;;;;13.59;56.75;100172.06;4958405;28;20034;-69
2023/07/01 07:01:06;;;;;;;3.30;2.65;;;;;;;13.57;56.35;100162.59;4966431;28;20127;-69
2023/07/01 07:03:33;;;;;;;3.30;2.00;;;;;;;13.51;56.46;100167.25;4963568;28;20138;-69
2023/07/01 07:05:58;;;;;;;4.72;2.30;;;;;;;13.66;56.25;100162.84;4963171;28;20571;-67
2023/07/01 07:08:24;;;;;;;10.43;2.85;;;;;;;14.00;55.40;100158.00;4977032;28;20052;-68
2023/07/01 07:10:49;;;;;;;6.20;2.42;;;;;;;14.12;55.45;100153.72;4967597;28;20151;-68
2023/07/01 07:13:16;;;;;;;7.00;2.63;;;;;;;14.10;55.44;100155.63;4964987;28;20041;-68
2023/07/01 07:15:42;;;;;;;5.97;2.80;;;;;;;13.72;56.55;100145.84;4964267;28;20531;-67
2023/07/01 07:18:09;;;;;;;6.47;3.25;;;;;;;13.93;56.64;100151.47;4968412;28;20030;-68
2023/07/01 07:20:38;;;;;;;4.85;2.42;;;;;;;13.97;56.22;100150.34;4959179;28;20092;-68
2023/07/01 07:23:06;;;;;;;4.40;2.45;;;;;;;14.37;55.50;100142.44;4982228;28;20887;-67
2023/07/01 07:25:32;;;;;;;9.98;3.75;;;;;;;14.53;55.45;100147.53;4962459;28;20077;-68
2023/07/01 07:27:58;;;;;;;3.40;2.50;;;;;;;14.24;55.81;100133.69;4966208;28;20038;-68
2023/07/01 07:30:23;;;;;;;4.75;2.50;;;;;;;14.23;55.81;100135.47;4959119;28;20130;-68
2023/07/01 07:32:48;;;;;;;4.43;2.92;;;;;;;13.93;56.72;100128.69;4965765;28;20549;-68
2023/07/01 07:35:14;;;;;;;4.15;2.28;;;;;;;14.09;56.59;100135.53;4963104;28;20145;-68
2023/07/01 07:37:39;;;;;;;3.22;2.55;;;;;;;14.57;55.59;100133.22;4962002;28;20036;-68
2023/07/01 07:40:07;;;;;;;3.20;2.20;;;;;;;14.42;55.55;100135.09;4963894;28;20049;-69
2023/07/01 07:42:33;;;;;;;3.85;2.67;;;;;;;14.31;56.37;100133.16;4959644;28;20042;-69
2023/07/01 07:44:58;;;;;;;4.15;2.25;;;;;;;13.88;57.75;100135.19;4963375;28;20038;-68
2023/07/01 07:47:27;;;;;;;9.32;3.47;;;;;;;13.80;58.40;100143.56;4961425;28;20557;-68
2023/07/01 07:49:54;;;;;;;4.65;2.38;;;;;;;13.62;58.82;100134.25;4961876;28;20038;-69
2023/07/01 07:52:24;;;;;;;3.03;2.42;;;;;;;14.30;57.31;100136.75;4961238;28;20133;-68
2023/07/01 07:54:52;;;;;;;2.88;2.50;;;;;;;14.02;58.33;100139.53;4948683;28;20101;-67
2023/07/01 07:57:18;;;;;;;5.78;2.97;;;;;;;14.49;57.64;100135.53;4966004;28;20112;-69
2023/07/01 07:59:44;;;;;;;9.30;2.85;;;;;;;13.68;59.13;100133.88;4957390;28;20125;-69
2023/07/01 08:02:10;;;;;;;6.78;2.53;;;;;;;14.15;57.91;100130.72;4966210;28;20030;-69
2023/07/01 08:04:37;;;;;;;3.50;2.63;;;;;;;13.92;58.78;100136.69;4958011;28;20127;-69
2023/07/01 08:07:03;;;;;;;4.90;2.55;;;;;;;14.50;57.19;100137.19;4964457;28;20085;-69
2023/07/01 08:09:31;;;;;;;9.20;5.90;;;;;;;14.72;57.01;100132.16;4959376;28;20058;-69
2023/07/01 08:11:59;;;;;;;4.88;3.25;;;;;;;14.76;57.06;100133.59;4960418;28;20066;-69
2023/07/01 08:14:26;;;;;;;3.38;2.67;;;;;;;14.98;56.38;100129.50;4961041;28;20064;-69
2023/07/01 08:16:53;;;;;;;6.80;3.00;;;;;;;14.89;56.24;100130.13;4957705;28;20129;-69
2023/07/01 08:19:19;;;;;;;3.42;2.42;;;;;;;14.30;57.70;100125.38;4976906;28;20166;-69
2023/07/01 08:21:44;;;;;;;7.43;2.60;;;;;;;14.51;57.36;100131.00;4959615;28;20516;-69
2023/07/01 08:24:14;;;;;;;3.63;2.95;;;;;;;14.79;56.94;100136.97;4962919;28;20577;-69
2023/07/01 08:26:42;;;;;;;3.42;2.80;;;;;;;14.63;57.06;100137.19;4972805;28;20034;-69
2023/07/01 08:29:09;;;;;;;7.15;3.13;;;;;;;14.07;59.63;100129.56;4963272;28;20043;-69
2023/07/01 08:31:35;;;;;;;6.25;3.33;;;;;;;14.33;58.10;100130.44;4954940;28;20042;-68
2023/07/01 08:34:02;;;;;;;3.63;2.63;;;;;;;14.81;57.73;100127.19;4955680;28;20179;-68
2023/07/01 08:36:28;;;;;;;2.78;2.03;;;;;;;14.67;57.42;100120.28;4966631;28;20042;-68
2023/07/01 08:38:53;;;;;;;5.80;2.90;;;;;;;14.68;57.13;100117.53;4958852;28;20503;-69
2023/07/01 08:41:23;;;;;;;4.32;2.92;;;;;;;14.97;57.50;100119.94;4962023;28;20045;-70
2023/07/01 08:43:52;;;;;;;6.70;2.63;;;;;;;15.01;57.41;100121.38;4960894;28;20035;-69
2023/07/01 08:46:19;;;;;;;5.43;2.08;;;;;;;15.01;57.60;100108.22;4959614;28;20523;-69
2023/07/01 08:48:46;;;;;;;3.60;2.67;;;;;;;15.02;57.39;100117.81;4957398;28;20093;-70
2023/07/01 08:51:25;;;;;;;5.15;2.22;;;;;;;14.76;58.43;100112.56;4973940;28;20281;-70
2023/07/01 08:53:51;;;;;;;4.43;2.40;;;;;;;14.94;57.84;100107.81;4960744;28;20282;-70
2023/07/01 08:56:20;;;;;;;3.95;2.70;;;;;;;15.11;58.12;100117.16;4956126;28;20089;-69
2023/07/01 08:58:47;;;;;;;7.30;2.67;;;;;;;15.28;57.13;100109.84;4953050;28;21177;-69
2023/07/01 09:01:13;;;;;;;4.40;2.47;;;;;;;14.70;58.94;100120.91;4958174;28;20136;-68
2023/07/01 09:03:39;;;;;;;5.15;2.72;;;;;;;14.75;58.65;100117.97;4953089;28;20087;-68
2023/07/01 09:06:07;;;;;;;6.35;3.33;;;;;;;14.23;60.17;100117.09;4957446;28;20170;-69
2023/07/01 09:08:39;;;;;;;3.10;2.78;;;;;;;14.75;59.08;100110.06;4953761;28;20068;-68
2023/07/01 09:11:14;;;;;;;;;;;;;;;14.29;61.02;100108.75;4957381;28;20026;-69
2023/07/01 09:13:40;;;;;;;4.28;2.50;;;;;;;14.57;59.86;100117.44;4955009;28;20489;-69
2023/07/01 09:16:06;;;;;;;3.92;3.50;;;;;;;14.05;61.62;100113.03;4961243;28;20527;-69
2023/07/01 09:18:32;;;;;;;3.20;2.60;;;;;;;14.71;59.36;100125.22;4947618;28;20427;-69
2023/07/01 09:20:58;;;;;;;3.42;2.45;;;;;;;14.40;60.39;100113.28;4960638;28;20030;-69
2023/07/01 09:23:38;;;;;;;6.60;3.67;;;;;;;14.61;59.74;100118.88;4961654;28;20050;-69
2023/07/01 09:26:06;;;;;;;5.40;3.20;;;;;;;14.59;60.24;100128.69;4963570;28;20061;-69
2023/07/01 09:28:34;;;;;;;4.40;2.95;;;;;;;14.74;59.52;100117.09;4959820;28;20077;-69
2023/07/01 09:31:09;;;;;;;3.97;3.15;;;;;;;14.19;60.89;100115.59;4981201;28;20042;-69
2023/07/01 09:33:35;;;;;;;4.50;3.47;;;;;;;14.39;60.68;100105.50;4961276;28;20055;-68
2023/07/01 09:36:02;;;;;;;3.75;2.88;;;;;;;14.98;59.33;100100.53;4960928;28;20069;-70
2023/07/01 09:38:32;;;;;;;4.78;3.40;;;;;;;14.81;59.60;100103.53;4980111;28;20049;-68
2023/07/01 09:41:17;;;;;;;4.10;3.30;;;;;;;15.08;59.43;100111.25;4960054;28;20299;-70
2023/07/01 09:43:43;;;;;;;4.60;3.03;;;;;;;15.03;59.53;100103.69;4958702;28;20752;-68
2023/07/01 09:46:08;;;;;;;6.28;2.90;;;;;;;15.41;58.52;100105.38;4962710;28;20045;-69
2023/07/01 09:48:34;;;;;;;4.50;3.00;;;;;;;15.66;58.23;100103.59;4962772;28;20501;-69
2023/07/01 09:51:04;;;;;;;4.82;2.55;;;;;;;15.23;58.56;100104.09;4981297;28;20040;-68
2023/07/01 09:53:32;;;;;;;3.42;2.80;;;;;;;15.28;58.77;100104.59;4964970;28;20042;-69
2023/07/01 09:56:01;;;;;;;4.55;3.53;;;;;;;15.01;59.33;100096.84;4964937;28;20034;-68
2023/07/01 09:58:27;;;;;;;4.80;3.72;;;;;;;15.24;59.15;100096.09;4967981;28;20145;-70
2023/07/01 10:00:53;;;;;;;3.63;3.33;;;;;;;15.64;58.61;100087.06;4968286;28;20391;-70
2023/07/01 10:03:19;;;;;;;4.75;3.00;;;;;;;15.44;58.94;100092.00;4967052;28;20439;-68
2023/07/01 10:05:46;;;;;;;3.30;3.00;;;;;;;15.96;58.20;100093.41;4963869;28;20034;-70
2023/07/01 10:08:14;;;;;;;3.40;3.03;;;;;;;14.69;60.22;100099.97;4964956;28;20030;-69
2023/07/01 10:10:39;;;;;;;4.40;4.00;;;;;;;14.53;61.73;100102.81;4965292;28;20137;-67
2023/07/01 10:13:06;;;;;;;4.45;4.05;;;;;;;14.87;60.34;100087.31;4964813;28;20042;-68
2023/07/01 10:15:33;;;;;;;4.82;3.38;;;;;;;15.16;59.76;100095.75;4963908;28;20319;-69
2023/07/01 10:17:59;;;;;;;5.93;3.35;;;;;;;14.71;61.40;100096.28;4967642;28;20042;-69
2023/07/01 10:20:25;;;;;;;4.03;3.60;;;;;;;15.29;60.12;100087.84;4963614;28;20050;-69
2023/07/01 10:22:58;;;;;;;5.30;3.25;;;;;;;15.40;59.63;100089.72;4964289;28;20034;-70
2023/07/01 10:25:37;;;;;;;3.85;2.90;;;;;;;14.98;60.86;100092.66;4962918;28;20509;-69
2023/07/01 10:28:05;;;;;;;4.10;3.42;;;;;;;15.17;60.44;100090.41;4952527;28;20074;-69
2023/07/01 10:30:42;;;;;;;4.13;3.35;;;;;;;15.15;60.63;100084.41;4971849;28;20517;-70
2023/07/01 10:33:36;;;;;;;4.90;3.65;;;;;;;15.57;59.97;100084.03;4948134;28;20093;-69
2023/07/01 10:36:10;;;;;;;5.35;3.97;;;;;;;15.62;60.80;100078.41;4987461;28;20160;-69
2023/07/01 10:38:38;;;;;;;5.10;3.72;;;;;;;14.87;62.19;100071.53;4968342;28;20117;-69
2023/07/01 10:41:04;;;;;;;4.88;3.75;;;;;;;15.74;59.71;100077.53;4966438;28;20045;-72
2023/07/01 10:43:34;;;;;;;7.10;3.85;;;;;;;15.90;58.88;100082.47;4971337;28;20562;-70
2023/07/01 10:46:13;;;;;;;4.53;3.47;;;;;;;15.59;59.19;100080.34;4971164;28;20033;-69
2023/07/01 10:48:43;;;;;;;3.42;3.13;;;;;;;14.32;62.69;100076.16;4968389;28;20072;-68
2023/07/01 10:51:11;;;;;;;4.45;3.97;;;;;;;15.03;61.29;100072.09;4973230;28;20046;-69
2023/07/01 10:54:00;;;;;;;4.93;3.42;;;;;;;15.67;60.44;100076.31;4966318;28;20141;-70
2023/07/01 10:56:37;;;;;;;5.20;2.75;;;;;;;16.00;58.68;100068.53;4968313;28;20546;-69
2023/07/01 10:59:31;;;;;;;4.93;3.70;;;;;;;15.73;58.99;100070.59;4970795;28;20491;-67
2023/07/01 11:02:00;;;;;;;3.70;3.00;;;;;;;16.16;59.26;100077.91;4965913;28;20133;-68
2023/07/01 11:04:55;;;;;;;5.72;3.25;;;;;;;16.51;57.61;100069.94;4982421;28;20132;-68
2023/07/01 11:07:24;;;;;;;4.40;2.78;;;;;;;16.32;57.94;100062.59;4985707;28;20499;-68
2023/07/01 11:09:51;;;;;;;3.65;3.25;;;;;;;15.20;60.25;100052.47;4971330;28;20081;-68
2023/07/01 11:12:17;;;;;;;3.53;2.72;;;;;;;15.63;59.35;100059.03;4969281;28;20109;-69
2023/07/01 11:14:42;;;;;;;3.85;3.47;;;;;;;15.79;59.23;100065.72;4963800;28;20160;-69
2023/07/01 11:17:15;;;;;;;4.28;3.38;;;;;;;15.38;59.93;100060.84;4970438;28;20478;-69
2023/07/01 11:19:40;;;;;;;4.55;3.00;;;;;;;16.18;58.50;100061.03;4968519;28;20537;-69
2023/07/01 11:22:14;;;;;;;3.55;3.22;;;;;;;15.14;60.62;100059.00;4970616;28;20550;-68
2023/07/01 11:24:40;;;;;;;;;;;;;;;15.31;60.58;100060.47;4965021;28;20125;-67
2023/07/01 11:27:08;;;;;;;3.22;2.72;;;;;;;15.71;59.62;100061.97;4986803;28;20013;-68
2023/07/01 11:29:40;;;;;;;3.67;3.22;;;;;;;15.36;60.57;100058.31;4982477;28;20447;-67